Fes, Morocco
Current Conditions -  °F | °C
As of 12:00 PM on Friday 28 Nov 2014 (Local Time) from GMFF Reporting Station
Moderate Rain Moderate Rain  
Wind Chill: 52°   Ceiling: 3000
Heat Index: 52°   Visibility: 6mi
Dew Point: 45°   Wind: 20mph
Humidity: 76%   Direction: 220°SW
Pressure: 29.26"   Gusts: NA
Location:  34.05°N, 5°W
Report Text: GMFF 281100Z 22017KT 9999 RA BKN030 BKN100 11/07 Q0991 NOSIG
Loading
Personal Weather Stations






























Interactive Weather Map New forecast layout! Learn more

10-Day Weather Forecast

Advertisements
Track Severe Weather on mobile